Taloyoak Airport
CYYH : now visible

Airfield :











YOU CAN JOIN US ON...

 
LOGIN :

Register | Disclaimer

   EN    FR    IT 

 









Legend :    VFR   Marginal VFR   IFR   Intensive IFR   Very Intensive IFR
Visi :
Ceiling :
>= 8 km
>= 3000ft
5 to 8 km
1000 to 3000 ft
1500m to 5 km
500 to 1000 ft
800 to 1500m
200 to 500 ft
< 800m
< 200 ft
Symbols :   Thunderstorms  Fog  Heavy snow  Heavy precipitations  Wind > 20 kt






- Airport Elevation : 92 ft
- IATA code : YYH


CYYH - Taloyoak

CURRENT METAR :
  • 250900Z 35004KT 15SM FEW005 SCT010 BKN014 02/01 A2945 RMK ST1SC4SC3 ST TR CIG RAG SLP978

EXPIRED METARs :
  • 250800Z 03004KT 15SM FEW006 SCT009 BKN013 02/01 A2944 RMK ST1ST3SC4 ST TR CIG RAG SLP973

TAF TAF CYYH
Valid from the 25 at 06:00 until the 25 at 18:00 UTC


250538Z 2506/2518 03008KT P6SM BKN015
TEMPO 2506/2509 P6SM -RA OVC008
BECMG 2506/2508 VRB03KT
FM250900 VRB03KT P6SM SCT015
TEMPO 2509/2515 BKN015
FM251500 12005KT P6SM BKN025
TEMPO 2515/2518 P6SM -SHRA OVC020
BECMG 2515/2517 05010KT RMK NXT FCST BY 251200Z
CZEG FIR / North America



MET'MAP, your aeronautical weather chart ! - Copyright ORBIFLY December 2007 - Disclaimer

ORBIFLY MET'MAP TEAM :

Programming & Development : Alexandra Zaïnal
Concept & original design : Baudouin d'Aumeries
Assistance for programming : Marc-Olivier Méhu
Technical & hardware support : Manuel Goepfert

Contact : metmap@orbifly.com




SOURCES & CREDITS :

   NOAA       Earth
Advisory